createdAt,value
2022-07-30T00:00:36.680Z,57.16
2022-07-30T00:03:04.969Z,57.11
2022-07-30T00:05:33.084Z,56.91
2022-07-30T00:08:01.235Z,56.52
2022-07-30T00:10:29.390Z,56.89
2022-07-30T00:12:58.257Z,56.68
2022-07-30T00:15:26.457Z,56.82
2022-07-30T00:17:56.050Z,56.63
2022-07-30T00:20:24.228Z,56.72
2022-07-30T00:22:56.202Z,56.97
2022-07-30T00:25:24.331Z,56.63
2022-07-30T00:27:52.441Z,56.91
2022-07-30T00:30:20.503Z,56.93
2022-07-30T00:32:48.631Z,56.45
2022-07-30T00:35:18.092Z,56.46
2022-07-30T00:37:46.415Z,56.90
2022-07-30T00:40:14.695Z,56.39
2022-07-30T00:42:43.468Z,56.74
2022-07-30T00:45:12.504Z,56.86
2022-07-30T00:47:40.781Z,56.62
2022-07-30T00:50:10.990Z,56.52
2022-07-30T00:52:40.797Z,56.38
2022-07-30T00:55:10.097Z,56.59
2022-07-30T00:57:39.294Z,56.53
2022-07-30T01:00:08.895Z,56.21
2022-07-30T01:02:37.167Z,56.54
2022-07-30T01:05:05.980Z,56.57
2022-07-30T01:07:34.504Z,56.25
2022-07-30T01:10:04.444Z,56.15
2022-07-30T01:12:32.537Z,56.29
2022-07-30T01:15:01.291Z,56.51
2022-07-30T01:17:29.388Z,56.33
2022-07-30T01:20:00.332Z,56.66
2022-07-30T01:22:34.660Z,55.93
2022-07-30T01:25:07.528Z,55.96
2022-07-30T01:27:40.184Z,56.16
2022-07-30T01:30:09.835Z,55.89
2022-07-30T01:32:40.057Z,56.08
2022-07-30T01:35:09.503Z,56.26
2022-07-30T01:37:37.741Z,56.06
2022-07-30T01:40:07.134Z,56.26
2022-07-30T01:42:37.092Z,55.96
2022-07-30T01:45:05.969Z,55.99
2022-07-30T01:47:34.641Z,55.96
2022-07-30T01:50:03.271Z,55.95
2022-07-30T01:52:31.751Z,55.87
2022-07-30T01:55:00.478Z,56.15
2022-07-30T01:57:28.795Z,56.09
2022-07-30T02:00:00.509Z,55.94
2022-07-30T02:02:29.152Z,55.65
2022-07-30T02:04:57.203Z,55.99
2022-07-30T02:07:30.429Z,56.11
2022-07-30T02:10:00.792Z,55.81
2022-07-30T02:12:32.226Z,55.70
2022-07-30T02:15:12.347Z,56.06
2022-07-30T02:17:44.952Z,56.05
2022-07-30T02:20:13.896Z,55.85
2022-07-30T02:22:46.477Z,55.89
2022-07-30T02:25:21.968Z,56.02
2022-07-30T02:27:54.192Z,55.87
2022-07-30T02:30:28.008Z,55.44
2022-07-30T02:32:57.556Z,55.60
2022-07-30T02:35:26.683Z,56.17
2022-07-30T02:37:54.936Z,55.45
2022-07-30T02:40:23.860Z,56.02
2022-07-30T02:42:53.711Z,55.54
2022-07-30T02:45:27.221Z,55.78
2022-07-30T02:47:57.617Z,55.78
2022-07-30T02:50:25.972Z,55.59
2022-07-30T02:52:55.456Z,55.84
2022-07-30T02:55:23.795Z,55.78
2022-07-30T02:57:52.504Z,55.94
2022-07-30T03:00:21.837Z,56.11
2022-07-30T03:02:56.700Z,55.80
2022-07-30T03:05:25.311Z,55.78
2022-07-30T03:07:55.324Z,55.74
2022-07-30T03:10:23.549Z,55.62
2022-07-30T03:12:51.619Z,55.99
2022-07-30T03:15:19.804Z,55.89
2022-07-30T03:17:53.404Z,55.59
2022-07-30T03:20:25.904Z,55.73
2022-07-30T03:22:54.719Z,55.82
2022-07-30T03:25:24.839Z,55.93
2022-07-30T03:27:53.261Z,55.55
2022-07-30T03:30:22.043Z,55.78
2022-07-30T03:32:50.258Z,55.71
2022-07-30T03:35:20.427Z,55.89
2022-07-30T03:37:50.404Z,55.68
2022-07-30T03:40:18.661Z,55.55
2022-07-30T03:42:47.789Z,55.90
2022-07-30T03:45:19.095Z,55.55
2022-07-30T03:47:47.260Z,55.86
2022-07-30T03:50:15.381Z,55.62
2022-07-30T03:52:44.108Z,55.73
2022-07-30T03:55:18.264Z,55.65
2022-07-30T03:57:49.392Z,55.77
2022-07-30T04:00:19.432Z,55.67
2022-07-30T04:02:52.517Z,55.81
2022-07-30T04:05:41.289Z,55.86
2022-07-30T04:08:10.191Z,55.95
2022-07-30T04:10:41.129Z,55.21
2022-07-30T04:13:28.113Z,55.51
2022-07-30T04:16:06.037Z,55.82
2022-07-30T04:18:49.960Z,55.91
2022-07-30T04:21:19.837Z,55.97
2022-07-30T04:24:04.319Z,56.31
2022-07-30T04:26:37.055Z,56.18
2022-07-30T04:29:07.313Z,56.22
2022-07-30T04:31:40.702Z,56.30
2022-07-30T04:34:28.093Z,56.56
2022-07-30T04:36:56.403Z,56.41
2022-07-30T04:39:24.680Z,56.36
2022-07-30T04:41:54.256Z,56.34
2022-07-30T04:44:34.380Z,56.72
2022-07-30T04:47:25.363Z,56.69
2022-07-30T04:50:10.591Z,56.57
2022-07-30T04:52:38.992Z,56.86
2022-07-30T04:55:09.525Z,56.79
2022-07-30T04:57:39.949Z,56.92
2022-07-30T05:00:09.155Z,56.84
2022-07-30T05:02:39.708Z,56.97
2022-07-30T05:05:09.129Z,57.26
2022-07-30T05:07:37.394Z,57.05
2022-07-30T05:10:07.885Z,57.14
2022-07-30T05:12:37.620Z,57.29
2022-07-30T05:15:08.302Z,57.24
2022-07-30T05:17:37.001Z,57.02
2022-07-30T05:20:08.383Z,57.21
2022-07-30T05:22:59.228Z,57.22
2022-07-30T05:25:27.540Z,57.27
2022-07-30T05:28:02.162Z,57.03
2022-07-30T05:30:31.685Z,57.11
2022-07-30T05:33:03.665Z,57.06
2022-07-30T05:35:43.992Z,57.15
2022-07-30T05:38:12.131Z,57.12
2022-07-30T05:40:57.211Z,57.03
2022-07-30T05:43:44.321Z,57.24
2022-07-30T05:46:13.950Z,57.27
2022-07-30T05:48:42.122Z,56.93
2022-07-30T05:51:10.272Z,57.06
2022-07-30T05:53:38.384Z,56.93
2022-07-30T05:56:25.236Z,57.01
2022-07-30T05:59:09.276Z,56.92
2022-07-30T06:01:57.347Z,57.26
2022-07-30T06:04:32.914Z,57.53
2022-07-30T06:07:05.155Z,57.43
2022-07-30T06:09:36.684Z,57.73
2022-07-30T06:12:06.744Z,57.63
2022-07-30T06:14:34.888Z,58.16
2022-07-30T06:17:04.940Z,58.11
2022-07-30T06:20:09.107Z,58.31
2022-07-30T06:22:49.632Z,58.37
2022-07-30T06:25:25.238Z,58.30
2022-07-30T06:27:53.422Z,57.88
2022-07-30T06:30:31.162Z,58.23
2022-07-30T06:33:01.365Z,58.17
2022-07-30T06:35:30.755Z,58.88
2022-07-30T06:38:07.059Z,58.26
2022-07-30T06:40:41.656Z,58.40
2022-07-30T06:43:20.409Z,58.42
2022-07-30T06:45:57.881Z,58.10
2022-07-30T06:48:32.886Z,58.19
2022-07-30T06:51:03.439Z,58.19
2022-07-30T06:53:31.768Z,58.44
2022-07-30T06:56:22.404Z,58.19
2022-07-30T06:59:01.221Z,58.48
2022-07-30T07:01:44.737Z,58.59
2022-07-30T07:04:15.123Z,58.37
2022-07-30T07:06:43.280Z,58.70
2022-07-30T07:09:16.431Z,58.41
2022-07-30T07:11:56.148Z,58.63
2022-07-30T07:14:24.395Z,58.69
2022-07-30T07:16:52.783Z,58.81
2022-07-30T07:19:59.434Z,58.87
2022-07-30T07:22:29.091Z,58.67
2022-07-30T07:24:57.242Z,58.70
2022-07-30T07:27:29.313Z,59.02
2022-07-30T07:30:05.339Z,58.73
2022-07-30T07:32:36.967Z,58.78
2022-07-30T07:35:09.621Z,58.93
2022-07-30T07:37:41.958Z,58.65
2022-07-30T07:40:15.465Z,58.53
2022-07-30T07:42:44.381Z,58.52
2022-07-30T07:45:12.946Z,58.31
2022-07-30T07:48:03.988Z,58.62
2022-07-30T07:50:58.269Z,58.48
2022-07-30T07:53:29.482Z,58.51
2022-07-30T07:55:57.634Z,58.19
2022-07-30T07:58:26.907Z,58.42
2022-07-30T08:00:59.095Z,58.89
2022-07-30T08:03:47.205Z,58.57
2022-07-30T08:06:39.992Z,58.50
2022-07-30T08:09:43.768Z,58.63
2022-07-30T08:12:45.687Z,59.11
2022-07-30T08:15:21.989Z,58.69
2022-07-30T08:18:12.688Z,58.61
2022-07-30T08:20:50.461Z,58.57
2022-07-30T08:23:24.506Z,58.56
2022-07-30T08:25:52.707Z,58.47
2022-07-30T08:28:36.156Z,58.52
2022-07-30T08:31:06.440Z,58.94
2022-07-30T08:33:34.516Z,58.17
2022-07-30T08:36:09.626Z,58.23
2022-07-30T08:38:40.229Z,58.33
2022-07-30T08:41:09.324Z,58.19
2022-07-30T08:43:37.694Z,58.37
2022-07-30T08:46:10.337Z,58.25
2022-07-30T08:49:06.401Z,58.49
2022-07-30T08:51:37.885Z,58.19
2022-07-30T08:54:19.482Z,58.21
2022-07-30T08:56:49.512Z,58.39
2022-07-30T08:59:18.221Z,58.32
2022-07-30T09:01:46.311Z,58.36
2022-07-30T09:04:15.397Z,58.29
2022-07-30T09:06:43.508Z,58.52
2022-07-30T09:09:11.786Z,58.52
2022-07-30T09:11:43.555Z,58.13
2022-07-30T09:14:12.088Z,58.64
2022-07-30T09:16:40.808Z,58.56
2022-07-30T09:19:14.704Z,58.21
2022-07-30T09:21:42.956Z,58.22
2022-07-30T09:24:23.916Z,58.14
2022-07-30T09:27:12.280Z,58.22
2022-07-30T09:29:50.028Z,58.42
2022-07-30T09:32:48.807Z,58.31
2022-07-30T09:35:35.631Z,58.34
2022-07-30T09:38:12.983Z,58.23
2022-07-30T09:40:57.613Z,58.50
2022-07-30T09:43:51.616Z,58.21
2022-07-30T09:46:45.042Z,58.35
2022-07-30T09:49:16.797Z,58.54
2022-07-30T09:51:56.192Z,58.29
2022-07-30T09:54:51.081Z,58.04
2022-07-30T09:57:26.063Z,58.48
2022-07-30T10:00:19.832Z,57.99
2022-07-30T10:03:21.993Z,57.99
2022-07-30T10:06:29.839Z,58.13
2022-07-30T10:08:58.894Z,57.86
2022-07-30T10:11:31.062Z,58.00
2022-07-30T10:14:00.795Z,58.14
2022-07-30T10:16:31.445Z,58.31
2022-07-30T10:19:00.248Z,57.98
2022-07-30T10:21:40.708Z,57.90
2022-07-30T10:24:32.748Z,58.11
2022-07-30T10:27:19.800Z,57.92
2022-07-30T10:30:07.683Z,57.75
2022-07-30T10:32:43.312Z,58.05
2022-07-30T10:35:11.602Z,57.87
2022-07-30T10:37:59.699Z,57.57
2022-07-30T10:40:30.912Z,57.62
2022-07-30T10:43:31.851Z,58.20
2022-07-30T10:46:04.399Z,57.93
2022-07-30T10:48:34.932Z,57.70
2022-07-30T10:51:03.072Z,57.59
2022-07-30T10:53:37.246Z,57.54
2022-07-30T10:56:15.402Z,57.94
2022-07-30T10:59:03.248Z,57.88
2022-07-30T11:02:08.906Z,57.75
2022-07-30T11:04:42.459Z,57.74
2022-07-30T11:07:32.787Z,58.01
2022-07-30T11:10:08.655Z,57.70
2022-07-30T11:12:54.530Z,57.72
2022-07-30T11:15:22.840Z,57.59
2022-07-30T11:18:04.522Z,57.62
2022-07-30T11:20:34.544Z,57.62
2022-07-30T11:23:39.982Z,57.50
2022-07-30T11:26:14.381Z,57.66
2022-07-30T11:28:44.537Z,57.54
2022-07-30T11:31:30.730Z,57.81
2022-07-30T11:34:27.753Z,57.82
2022-07-30T11:37:19.153Z,57.40
2022-07-30T11:40:10.622Z,57.76
2022-07-30T11:42:39.674Z,57.79
2022-07-30T11:45:23.324Z,57.57
2022-07-30T11:47:52.176Z,57.73
2022-07-30T11:50:20.524Z,57.92
2022-07-30T11:52:53.675Z,57.41
2022-07-30T11:55:25.737Z,57.57
2022-07-30T11:57:54.116Z,57.39
2022-07-30T12:00:22.264Z,57.48
2022-07-30T12:05:26.984Z,57.47
2022-07-30T12:08:00.524Z,57.47
2022-07-30T12:10:28.764Z,57.52
2022-07-30T12:13:08.425Z,57.29
2022-07-30T12:15:37.423Z,57.48
2022-07-30T12:18:25.432Z,57.79
2022-07-30T12:20:59.244Z,57.39
2022-07-30T12:23:29.302Z,57.22
2022-07-30T12:25:58.143Z,57.29
2022-07-30T12:28:27.479Z,57.45
2022-07-30T12:30:55.913Z,57.22
2022-07-30T12:33:24.083Z,57.28
2022-07-30T12:35:55.149Z,57.35
2022-07-30T12:38:24.020Z,57.38
2022-07-30T12:40:54.836Z,57.00
2022-07-30T12:43:45.025Z,57.17
2022-07-30T12:46:15.215Z,57.30
2022-07-30T12:48:56.528Z,57.07
2022-07-30T12:51:26.918Z,57.58
2022-07-30T12:53:55.543Z,57.46
2022-07-30T12:56:25.836Z,57.30
2022-07-30T12:58:54.338Z,57.48
2022-07-30T13:01:40.719Z,57.53
2022-07-30T13:04:09.100Z,57.51
2022-07-30T13:06:38.128Z,56.80
2022-07-30T13:09:06.387Z,57.26
2022-07-30T13:11:42.280Z,57.16
2022-07-30T13:14:17.143Z,57.34
2022-07-30T13:16:45.645Z,57.46
2022-07-30T13:19:13.975Z,57.25
2022-07-30T13:21:49.737Z,57.05
2022-07-30T13:24:18.636Z,57.47
2022-07-30T13:26:50.794Z,57.05
2022-07-30T13:29:19.062Z,57.07
2022-07-30T13:31:47.308Z,56.92
2022-07-30T13:34:15.371Z,57.66
2022-07-30T13:36:43.496Z,57.37
2022-07-30T13:39:12.121Z,57.37
2022-07-30T13:41:41.761Z,56.97
2022-07-30T13:44:11.207Z,56.87
2022-07-30T13:46:41.327Z,56.76
2022-07-30T13:49:10.750Z,56.72
2022-07-30T13:51:39.110Z,57.31
2022-07-30T13:54:07.577Z,57.14
2022-07-30T13:56:40.633Z,57.24
2022-07-30T13:59:10.522Z,57.00
2022-07-30T14:01:38.692Z,57.03
2022-07-30T14:04:07.008Z,56.79
2022-07-30T14:06:35.736Z,56.88
2022-07-30T14:09:03.902Z,57.28
2022-07-30T14:11:32.440Z,57.15
2022-07-30T14:14:00.534Z,56.89
2022-07-30T14:16:44.647Z,56.89
2022-07-30T14:19:24.141Z,56.80
2022-07-30T14:21:53.878Z,56.69
2022-07-30T14:24:22.204Z,56.67
2022-07-30T14:26:55.801Z,57.02
2022-07-30T14:29:26.155Z,56.75
2022-07-30T14:31:55.735Z,56.61
2022-07-30T14:34:23.867Z,56.76
2022-07-30T14:36:52.258Z,56.85
2022-07-30T14:39:20.979Z,56.74
2022-07-30T14:41:52.307Z,56.53
2022-07-30T14:44:23.909Z,56.70
2022-07-30T14:46:52.975Z,56.68
2022-07-30T14:49:24.143Z,56.25
2022-07-30T14:51:52.717Z,56.29
2022-07-30T14:54:20.853Z,56.21
2022-07-30T14:56:49.049Z,55.87
2022-07-30T14:59:17.125Z,55.51
2022-07-30T15:01:47.145Z,55.37
2022-07-30T15:04:16.334Z,55.62
2022-07-30T15:06:45.981Z,55.50
2022-07-30T15:09:14.456Z,55.44
2022-07-30T15:12:07.647Z,55.69
2022-07-30T15:14:31.666Z,55.27
2022-07-30T15:17:04.226Z,55.02
2022-07-30T15:19:33.701Z,55.03
2022-07-30T15:22:04.813Z,55.29
2022-07-30T15:24:33.779Z,55.52
2022-07-30T15:27:02.103Z,55.38
2022-07-30T15:29:32.159Z,55.12
2022-07-30T15:32:01.711Z,55.37
2022-07-30T15:34:34.394Z,55.58
2022-07-30T15:37:05.471Z,55.63
2022-07-30T15:39:34.511Z,55.31
2022-07-30T15:42:03.395Z,55.42
2022-07-30T15:44:32.415Z,54.79
2022-07-30T15:47:01.117Z,55.01
2022-07-30T15:49:29.652Z,54.60
2022-07-30T15:52:00.241Z,54.15
2022-07-30T15:54:30.161Z,54.07
2022-07-30T15:57:01.097Z,54.03
2022-07-30T15:59:30.599Z,53.74
2022-07-30T16:01:59.486Z,53.67
2022-07-30T16:04:31.262Z,53.38
2022-07-30T16:07:01.561Z,53.01
2022-07-30T16:09:31.401Z,52.66
2022-07-30T16:12:00.990Z,52.47
2022-07-30T16:14:29.590Z,52.87
2022-07-30T16:16:57.811Z,52.48
2022-07-30T16:19:26.334Z,52.46
2022-07-30T16:21:54.661Z,52.02
2022-07-30T16:24:23.103Z,51.62
2022-07-30T16:26:52.808Z,51.26
2022-07-30T16:29:21.703Z,51.13
2022-07-30T16:31:50.532Z,50.75
2022-07-30T16:34:26.305Z,50.17
2022-07-30T16:36:55.257Z,50.21
2022-07-30T16:39:23.734Z,50.28
2022-07-30T16:41:53.481Z,50.47
2022-07-30T16:44:21.697Z,50.63
2022-07-30T16:46:50.214Z,51.05
2022-07-30T16:49:18.992Z,50.62
2022-07-30T16:51:47.480Z,50.35
2022-07-30T16:54:15.903Z,50.41
2022-07-30T16:56:44.369Z,50.62
2022-07-30T16:59:14.608Z,50.58
2022-07-30T17:01:42.928Z,50.12
2022-07-30T17:04:11.392Z,50.60
2022-07-30T17:06:40.256Z,50.62
2022-07-30T17:09:08.551Z,50.29
2022-07-30T17:11:46.412Z,50.39
2022-07-30T17:14:17.941Z,50.35
2022-07-30T17:16:46.307Z,50.48
2022-07-30T17:19:15.000Z,50.50
2022-07-30T17:21:43.147Z,50.50
2022-07-30T17:24:13.616Z,50.47
2022-07-30T17:26:43.315Z,50.44
2022-07-30T17:29:14.138Z,49.96
2022-07-30T17:31:44.785Z,50.73
2022-07-30T17:34:14.089Z,50.44
2022-07-30T17:36:47.031Z,50.41
2022-07-30T17:40:23.885Z,50.54
2022-07-30T17:42:10.165Z,50.24
2022-07-30T17:44:39.451Z,50.70
2022-07-30T17:47:14.515Z,50.13
2022-07-30T17:49:44.845Z,50.13
2022-07-30T17:52:13.213Z,50.05
2022-07-30T17:54:41.552Z,50.19
2022-07-30T17:57:09.762Z,50.30
2022-07-30T17:59:37.969Z,50.47
2022-07-30T18:02:06.767Z,50.35
2022-07-30T18:04:36.968Z,50.25
2022-07-30T18:07:05.689Z,50.21
2022-07-30T18:09:36.103Z,50.43
2022-07-30T18:12:08.972Z,50.05
2022-07-30T18:14:37.538Z,49.94
2022-07-30T18:17:08.225Z,49.88
2022-07-30T18:19:41.635Z,49.55
2022-07-30T18:22:10.800Z,49.83
2022-07-30T18:24:43.922Z,49.38
2022-07-30T18:27:14.662Z,49.48
2022-07-30T18:29:42.998Z,49.19
2022-07-30T18:32:11.384Z,49.01
2022-07-30T18:34:41.188Z,48.46
2022-07-30T18:37:10.035Z,48.87
2022-07-30T18:39:38.127Z,48.45
2022-07-30T18:42:07.558Z,48.20
2022-07-30T18:44:35.749Z,48.10
2022-07-30T18:47:04.054Z,48.57
2022-07-30T18:49:37.581Z,47.73
2022-07-30T18:52:08.269Z,47.95
2022-07-30T18:54:37.620Z,47.97
2022-07-30T18:57:07.474Z,47.85
2022-07-30T18:59:38.531Z,48.23
2022-07-30T19:02:08.607Z,47.89
2022-07-30T19:04:38.059Z,48.42
2022-07-30T19:07:08.514Z,48.07
2022-07-30T19:09:36.838Z,48.42
2022-07-30T19:12:06.196Z,47.90
2022-07-30T19:14:35.076Z,47.81
2022-07-30T19:17:03.462Z,47.63
2022-07-30T19:19:43.323Z,47.73
2022-07-30T19:22:12.873Z,47.88
2022-07-30T19:24:40.985Z,47.65
2022-07-30T19:27:13.977Z,47.99
2022-07-30T19:29:43.500Z,47.88
2022-07-30T19:32:11.660Z,47.93
2022-07-30T19:34:40.637Z,48.05
2022-07-30T19:37:08.764Z,47.93
2022-07-30T19:39:38.231Z,48.30
2022-07-30T19:42:27.927Z,47.98
2022-07-30T19:44:56.088Z,48.44
2022-07-30T19:47:26.182Z,48.17
2022-07-30T19:49:54.288Z,48.76
2022-07-30T19:52:25.588Z,48.42
2022-07-30T19:54:56.043Z,48.64
2022-07-30T19:57:24.132Z,48.66
2022-07-30T20:00:12.987Z,48.89
2022-07-30T20:02:41.124Z,48.54
2022-07-30T20:05:11.743Z,49.12
2022-07-30T20:07:42.491Z,47.81
2022-07-30T20:10:14.052Z,47.60
2022-07-30T20:12:49.121Z,47.76
2022-07-30T20:15:17.999Z,48.01
2022-07-30T20:17:46.616Z,47.83
2022-07-30T20:20:14.806Z,48.43
2022-07-30T20:22:42.976Z,48.01
2022-07-30T20:25:11.163Z,48.24
2022-07-30T20:27:42.901Z,48.06
2022-07-30T20:30:12.703Z,48.12
2022-07-30T20:32:46.423Z,48.35
2022-07-30T20:35:15.047Z,48.34
2022-07-30T20:37:55.672Z,48.72
2022-07-30T20:40:26.537Z,48.61
2022-07-30T20:42:56.572Z,48.52
2022-07-30T20:45:25.327Z,48.75
2022-07-30T20:48:08.493Z,48.72
2022-07-30T20:50:46.589Z,49.09
2022-07-30T20:53:17.552Z,48.86
2022-07-30T20:55:45.685Z,48.96
2022-07-30T20:58:17.377Z,49.38
2022-07-30T21:00:49.541Z,49.06
2022-07-30T21:03:21.217Z,49.04
2022-07-30T21:05:52.342Z,49.17
2022-07-30T21:08:21.367Z,49.03
2022-07-30T21:10:55.245Z,49.51
2022-07-30T21:13:26.098Z,49.42
2022-07-30T21:16:02.760Z,49.64
2022-07-30T21:18:32.747Z,49.36
2022-07-30T21:21:05.496Z,49.64
2022-07-30T21:23:34.197Z,49.75
2022-07-30T21:26:07.023Z,50.03
2022-07-30T21:28:41.426Z,50.09
2022-07-30T21:31:09.496Z,49.49
2022-07-30T21:33:37.720Z,49.82
2022-07-30T21:36:10.275Z,50.12
2022-07-30T21:38:41.877Z,49.87
2022-07-30T21:41:14.416Z,50.11
2022-07-30T21:43:44.945Z,50.21
2022-07-30T21:46:13.186Z,50.32
2022-07-30T21:48:41.265Z,50.41
2022-07-30T21:51:09.887Z,50.17
2022-07-30T21:53:45.979Z,50.24
2022-07-30T21:56:14.787Z,50.65
2022-07-30T21:58:45.816Z,50.31
2022-07-30T22:01:21.802Z,50.42
2022-07-30T22:04:02.073Z,50.30
2022-07-30T22:06:34.943Z,50.30
2022-07-30T22:09:06.305Z,50.73
2022-07-30T22:11:46.638Z,50.42
2022-07-30T22:14:16.097Z,50.62
2022-07-30T22:16:46.506Z,50.35
2022-07-30T22:19:15.402Z,50.37
2022-07-30T22:21:46.517Z,50.20
2022-07-30T22:24:28.815Z,50.37
2022-07-30T22:27:00.026Z,50.00
2022-07-30T22:29:33.811Z,50.08
2022-07-30T22:32:04.667Z,49.96
2022-07-30T22:34:33.151Z,49.97
2022-07-30T22:37:01.996Z,49.61
2022-07-30T22:39:31.591Z,49.92
2022-07-30T22:42:01.594Z,50.24
2022-07-30T22:44:31.296Z,49.67
2022-07-30T22:46:59.417Z,49.75
2022-07-30T22:49:49.854Z,49.81
2022-07-30T22:55:09.290Z,49.80
2022-07-30T22:57:40.184Z,49.43
2022-07-30T23:00:12.755Z,49.65
2022-07-30T23:02:42.036Z,49.08
2022-07-30T23:05:11.069Z,49.10
2022-07-30T23:07:40.451Z,49.18
2022-07-30T23:10:17.390Z,48.82
2022-07-30T23:12:30.686Z,49.58
2022-07-30T23:12:48.841Z,49.06
2022-07-30T23:15:18.653Z,48.89
2022-07-30T23:17:46.764Z,48.69
2022-07-30T23:20:15.988Z,48.77
2022-07-30T23:22:44.125Z,48.67
2022-07-30T23:25:12.264Z,48.48
2022-07-30T23:27:40.420Z,48.24
2022-07-30T23:30:09.568Z,48.14
2022-07-30T23:32:39.916Z,48.30
2022-07-30T23:35:09.000Z,48.78
2022-07-30T23:37:37.898Z,48.43
2022-07-30T23:40:18.568Z,48.02
2022-07-30T23:42:46.988Z,47.99
2022-07-30T23:45:15.131Z,48.19
2022-07-30T23:48:00.616Z,48.18
2022-07-30T23:50:30.560Z,48.15
2022-07-30T23:52:58.674Z,47.87
2022-07-30T23:55:27.196Z,47.69
2022-07-30T23:57:55.601Z,47.86
